| time (UTC) | temp C | wind direction | speed KPH | gust KPH | rain 1hr cm | rain 24hr cm | rain mn cm | humidity % | barometer mb |
| 20260905164935 | 32 | 99 | 1.6 | 9.7 | 0.00 | 0.00 | 0.00 | 61 | 1013.8 |
| 20260905154935 | 28 | 196 | 1.6 | 8.0 | 0.00 | 0.00 | 0.00 | 70 | 1014.1 |
| 20260905144934 | 26 | 66 | 1.6 | 11.3 | 0.00 | 0.00 | 0.00 | 77 | 1014.2 |
| 20260905134934 | 25 | 82 | 1.6 | 12.9 | 0.00 | 0.00 | 0.00 | 88 | 1014.3 |
| 20260905124934 | 23 | 81 | 4.8 | 11.3 | 0.00 | 0.00 | 0.00 | 92 | 1014.3 |
| 20260905104933 | 23 | 40 | 0.0 | 3.2 | 0.00 | 0.00 | 0.00 | 91 | 1012.8 |
| 20260905094933 | 23 | 299 | 0.0 | 1.6 | 0.00 | 0.00 | 0.00 | 90 | 1013.0 |
| 20260905084933 | 23 | 297 | 0.0 | 3.2 | 0.00 | 0.00 | 0.00 | 90 | 1012.7 |
| 20260905074933 | 24 | 294 | 0.0 | 1.6 | 0.00 | 0.00 | 0.00 | 90 | 1012.4 |
| 20260905054932 | 25 | 263 | 0.0 | 1.6 | 0.00 | 0.00 | 0.00 | 88 | 1013.4 |
| 20260905044932 | 25 | 262 | 0.0 | 1.6 | 0.00 | 0.00 | 0.00 | 87 | 1013.7 |
| 20260905034932 | 26 | 263 | 1.6 | 1.6 | 0.00 | 0.00 | 0.00 | 85 | 1013.6 |
| 20260905024931 | 26 | 262 | 0.0 | 1.6 | 0.00 | 0.00 | 0.00 | 83 | 1013.5 |
| 20260905014931 | 27 | 262 | 0.0 | 1.6 | 0.00 | 0.00 | 0.00 | 80 | 1013.1 |
| 20260905004931 | 29 | 182 | 0.0 | 1.6 | 0.00 | 0.00 | 0.00 | 76 | 1012.6 |
| 20260904234931 | 32 | 180 | 0.0 | 1.6 | 0.00 | 0.00 | 0.00 | 68 | 1012.3 |
| 20260904224933 | 35 | 180 | 0.0 | 6.4 | 0.00 | 0.00 | 0.00 | 56 | 1012.5 |
| 20260904214933 | 37 | 281 | 1.6 | 8.0 | 0.00 | 0.00 | 0.00 | 48 | 1012.8 |
| 20260904194933 | 37 | 227 | 1.6 | 12.9 | 0.00 | 0.00 | 0.00 | 51 | 1014.0 |
| 20260904174932 | 35 | 298 | 6.4 | 14.5 | 0.00 | 0.00 | 0.00 | 57 | 1015.6 |